createdAt,value
2023-03-17T00:00:39.501Z,62.53
2023-03-17T00:03:08.842Z,61.09
2023-03-17T00:05:37.108Z,63.36
2023-03-17T00:08:23.854Z,63.81
2023-03-17T00:10:55.077Z,63.60
2023-03-17T00:13:24.243Z,62.97
2023-03-17T00:16:01.327Z,64.29
2023-03-17T00:18:31.894Z,63.03
2023-03-17T00:21:00.484Z,63.31
2023-03-17T00:23:28.608Z,63.48
2023-03-17T00:25:57.726Z,64.55
2023-03-17T00:28:27.678Z,64.54
2023-03-17T00:31:01.257Z,62.90
2023-03-17T00:33:33.403Z,64.50
2023-03-17T00:36:02.056Z,62.74
2023-03-17T00:38:30.737Z,62.86
2023-03-17T00:40:59.574Z,60.69
2023-03-17T00:43:30.380Z,62.56
2023-03-17T00:45:59.115Z,60.17
2023-03-17T00:48:30.214Z,61.52
2023-03-17T00:50:58.784Z,62.20
2023-03-17T00:53:30.003Z,62.52
2023-03-17T00:56:00.881Z,59.62
2023-03-17T00:58:31.536Z,59.72
2023-03-17T01:01:01.199Z,60.20
2023-03-17T01:03:29.782Z,57.18
2023-03-17T01:05:58.160Z,59.77
2023-03-17T01:08:27.091Z,60.41
2023-03-17T01:10:55.270Z,58.75
2023-03-17T01:13:24.258Z,61.29
2023-03-17T01:15:53.302Z,60.06
2023-03-17T01:18:23.095Z,60.48
2023-03-17T01:20:51.988Z,59.75
2023-03-17T01:23:20.611Z,60.99
2023-03-17T01:25:49.461Z,62.15
2023-03-17T01:28:19.933Z,65.58
2023-03-17T01:30:49.482Z,62.95
2023-03-17T01:33:19.427Z,63.45
2023-03-17T01:35:47.810Z,65.18
2023-03-17T01:38:16.470Z,63.55
2023-03-17T01:40:50.273Z,63.69
2023-03-17T01:43:24.423Z,66.15
2023-03-17T01:46:30.985Z,66.28
2023-03-17T01:49:04.696Z,66.18
2023-03-17T01:51:51.729Z,66.58
2023-03-17T01:54:29.999Z,66.24
2023-03-17T01:57:04.147Z,68.54
2023-03-17T01:59:35.613Z,66.11
2023-03-17T02:02:11.175Z,64.41
2023-03-17T02:04:40.620Z,64.78
2023-03-17T02:07:10.424Z,66.06
2023-03-17T02:09:40.591Z,66.86
2023-03-17T02:12:09.994Z,68.26
2023-03-17T02:14:38.205Z,68.02
2023-03-17T02:17:06.869Z,68.12
2023-03-17T02:19:36.027Z,65.56
2023-03-17T02:22:04.171Z,66.85
2023-03-17T02:24:34.304Z,63.33
2023-03-17T02:27:15.333Z,60.80
2023-03-17T02:29:46.569Z,59.76
2023-03-17T02:32:16.054Z,57.84
2023-03-17T02:34:46.813Z,62.25
2023-03-17T02:37:16.649Z,65.63
2023-03-17T02:39:45.175Z,62.59
2023-03-17T02:42:14.254Z,64.18
2023-03-17T02:44:42.338Z,65.69
2023-03-17T02:47:11.125Z,65.13
2023-03-17T02:49:40.655Z,67.75
2023-03-17T02:52:09.554Z,65.70
2023-03-17T02:54:38.484Z,67.43
2023-03-17T02:57:08.714Z,66.87
2023-03-17T02:59:37.039Z,64.81
2023-03-17T03:02:05.968Z,66.40
2023-03-17T03:04:34.072Z,67.60
2023-03-17T03:07:03.044Z,67.97
2023-03-17T03:09:31.648Z,67.52
2023-03-17T03:12:00.149Z,63.67
2023-03-17T03:14:28.296Z,65.03
2023-03-17T03:16:56.902Z,66.45
2023-03-17T03:19:25.116Z,68.85
2023-03-17T03:21:53.208Z,69.22
2023-03-17T03:24:21.727Z,68.95
2023-03-17T03:26:49.894Z,62.30
2023-03-17T03:29:18.168Z,59.64
2023-03-17T03:31:48.865Z,59.49
2023-03-17T03:34:17.112Z,62.20
2023-03-17T03:36:45.330Z,63.75
2023-03-17T03:39:14.515Z,67.57
2023-03-17T03:41:42.866Z,67.26
2023-03-17T03:44:11.214Z,67.49
2023-03-17T03:46:39.767Z,67.20
2023-03-17T03:49:08.030Z,68.63
2023-03-17T03:51:36.156Z,68.59
2023-03-17T03:54:04.599Z,69.78
2023-03-17T03:56:32.958Z,69.93
2023-03-17T03:59:01.461Z,69.53
2023-03-17T04:01:29.970Z,67.98
2023-03-17T04:03:58.495Z,65.94
2023-03-17T04:06:26.609Z,65.84
2023-03-17T04:08:57.092Z,65.71
2023-03-17T04:11:26.800Z,67.10
2023-03-17T04:13:55.132Z,68.02
2023-03-17T04:16:23.308Z,68.10
2023-03-17T04:18:52.129Z,67.24
2023-03-17T04:21:20.913Z,68.77
2023-03-17T04:23:49.238Z,69.48
2023-03-17T04:26:19.010Z,68.90
2023-03-17T04:28:47.306Z,69.39
2023-03-17T04:31:15.593Z,68.50
2023-03-17T04:33:44.201Z,68.38
2023-03-17T04:36:24.179Z,69.03
2023-03-17T04:38:52.715Z,68.06
2023-03-17T04:41:21.580Z,66.89
2023-03-17T04:43:49.792Z,66.40
2023-03-17T04:46:18.410Z,67.48
2023-03-17T04:48:46.726Z,67.66
2023-03-17T04:51:14.822Z,67.31
2023-03-17T04:53:43.368Z,69.93
2023-03-17T04:56:12.206Z,70.32
2023-03-17T04:58:40.388Z,67.53
2023-03-17T05:01:09.082Z,68.76
2023-03-17T05:03:37.560Z,68.26
2023-03-17T05:06:07.347Z,69.29
2023-03-17T05:08:36.229Z,70.86
2023-03-17T05:11:04.597Z,69.92
2023-03-17T05:13:32.718Z,68.39
2023-03-17T05:16:01.866Z,70.54
2023-03-17T05:18:30.868Z,71.02
2023-03-17T05:20:59.083Z,70.25
2023-03-17T05:23:27.719Z,69.22
2023-03-17T05:25:56.159Z,66.74
2023-03-17T05:28:25.093Z,67.41
2023-03-17T05:30:53.711Z,68.49
2023-03-17T05:33:22.115Z,68.46
2023-03-17T05:35:50.507Z,65.43
2023-03-17T05:38:19.097Z,62.36
2023-03-17T05:40:50.098Z,58.01
2023-03-17T05:43:18.920Z,54.27
2023-03-17T05:45:47.944Z,51.81
2023-03-17T05:48:16.268Z,49.36
2023-03-17T05:50:44.905Z,48.30
2023-03-17T05:53:13.139Z,42.75
2023-03-17T05:55:41.951Z,44.10
2023-03-17T05:58:10.581Z,41.81
2023-03-17T06:00:39.170Z,41.89
2023-03-17T06:03:08.206Z,37.85
2023-03-17T06:05:37.035Z,36.58
2023-03-17T06:08:06.489Z,36.70
2023-03-17T06:10:35.138Z,36.11
2023-03-17T06:13:04.836Z,33.55
2023-03-17T06:15:34.636Z,34.04
2023-03-17T06:18:05.575Z,36.47
2023-03-17T06:20:34.593Z,38.21
2023-03-17T06:23:05.570Z,37.88
2023-03-17T06:25:37.217Z,38.81
2023-03-17T06:28:07.611Z,35.36
2023-03-17T06:30:40.654Z,34.84
2023-03-17T06:33:11.284Z,34.08
2023-03-17T06:35:44.733Z,32.47
2023-03-17T06:38:13.814Z,32.77
2023-03-17T06:40:42.628Z,31.86
2023-03-17T06:43:13.375Z,29.58
2023-03-17T06:45:42.058Z,30.45
2023-03-17T06:48:12.001Z,29.57
2023-03-17T06:50:42.831Z,29.66
2023-03-17T06:53:15.567Z,30.50
2023-03-17T06:55:46.617Z,31.60
2023-03-17T06:58:19.114Z,31.40
2023-03-17T07:00:49.193Z,31.57
2023-03-17T07:03:17.791Z,31.74
2023-03-17T07:05:47.201Z,32.31
2023-03-17T07:08:15.469Z,33.48
2023-03-17T07:10:47.917Z,31.08
2023-03-17T07:13:17.138Z,32.31
2023-03-17T07:15:46.752Z,33.39
2023-03-17T07:18:19.639Z,32.93
2023-03-17T07:20:48.869Z,32.14
2023-03-17T07:23:21.546Z,33.99
2023-03-17T07:25:51.018Z,32.66
2023-03-17T07:28:19.628Z,32.00
2023-03-17T07:30:51.369Z,32.34
2023-03-17T07:33:21.479Z,32.08
2023-03-17T07:35:50.222Z,32.40
2023-03-17T07:38:21.366Z,33.54
2023-03-17T07:40:49.930Z,32.76
2023-03-17T07:43:18.137Z,32.03
2023-03-17T07:45:47.108Z,31.52
2023-03-17T07:48:15.691Z,30.67
2023-03-17T07:50:44.674Z,32.46
2023-03-17T07:53:14.397Z,32.13
2023-03-17T07:55:44.527Z,32.39
2023-03-17T07:58:15.604Z,33.44
2023-03-17T08:00:44.478Z,33.04
2023-03-17T08:03:13.166Z,32.05
2023-03-17T08:05:43.783Z,31.77
2023-03-17T08:08:15.472Z,31.21
2023-03-17T08:10:43.575Z,32.09
2023-03-17T08:13:13.386Z,30.82
2023-03-17T08:15:42.670Z,29.43
2023-03-17T08:18:10.846Z,31.45
2023-03-17T08:20:39.448Z,30.78
2023-03-17T08:23:08.047Z,30.80
2023-03-17T08:25:36.312Z,30.43
2023-03-17T08:28:06.585Z,28.96
2023-03-17T08:30:35.800Z,30.17
2023-03-17T08:33:04.896Z,29.14
2023-03-17T08:35:33.813Z,29.83
2023-03-17T08:38:02.696Z,28.37
2023-03-17T08:40:31.752Z,26.50
2023-03-17T08:43:00.150Z,27.89
2023-03-17T08:45:29.321Z,29.37
2023-03-17T08:47:58.028Z,28.45
2023-03-17T08:50:28.552Z,28.92
2023-03-17T08:52:57.357Z,29.26
2023-03-17T08:55:25.485Z,28.22
2023-03-17T08:57:53.987Z,30.86
2023-03-17T09:00:24.438Z,29.58
2023-03-17T09:02:52.547Z,27.00
2023-03-17T09:05:20.993Z,26.99
2023-03-17T09:07:50.405Z,26.45
2023-03-17T09:10:23.943Z,27.09
2023-03-17T09:12:53.609Z,27.06
2023-03-17T09:15:22.368Z,28.08
2023-03-17T09:17:50.742Z,27.29
2023-03-17T09:20:19.525Z,26.76
2023-03-17T09:22:49.374Z,26.72
2023-03-17T09:25:18.213Z,24.34
2023-03-17T09:27:46.982Z,23.66
2023-03-17T09:30:15.370Z,23.67
2023-03-17T09:32:45.734Z,24.70
2023-03-17T09:35:14.606Z,23.16
2023-03-17T09:37:42.984Z,22.99
2023-03-17T09:40:17.499Z,23.05
2023-03-17T09:42:58.779Z,23.51
2023-03-17T09:45:35.676Z,21.50
2023-03-17T09:48:25.639Z,21.97
2023-03-17T09:51:05.248Z,20.71
2023-03-17T09:53:53.000Z,20.81
2023-03-17T09:56:21.578Z,20.12
2023-03-17T09:59:06.479Z,22.44
2023-03-17T10:01:34.922Z,22.72
2023-03-17T10:04:04.416Z,21.63
2023-03-17T10:06:40.897Z,20.88
2023-03-17T10:09:35.524Z,20.98
2023-03-17T10:12:37.194Z,19.67
2023-03-17T10:15:27.037Z,18.72
2023-03-17T10:17:57.357Z,18.66
2023-03-17T10:20:29.095Z,18.08
2023-03-17T10:23:10.499Z,20.09
2023-03-17T10:25:39.732Z,19.14
2023-03-17T10:28:27.370Z,18.24
2023-03-17T10:31:02.394Z,18.12
2023-03-17T10:33:30.733Z,18.34
2023-03-17T10:36:09.922Z,19.02
2023-03-17T10:38:38.113Z,19.77
2023-03-17T10:41:10.379Z,18.55
2023-03-17T10:43:45.999Z,19.13
2023-03-17T10:46:26.601Z,18.23
2023-03-17T10:49:05.971Z,17.94
2023-03-17T10:51:37.197Z,17.28
2023-03-17T10:54:14.337Z,18.20
2023-03-17T10:56:43.179Z,19.02
2023-03-17T10:59:28.638Z,18.20
2023-03-17T11:02:01.799Z,17.99
2023-03-17T11:04:40.510Z,16.12
2023-03-17T11:07:31.555Z,16.76
2023-03-17T11:10:03.211Z,16.29
2023-03-17T11:12:38.522Z,16.58
2023-03-17T11:15:12.554Z,14.53
2023-03-17T11:18:01.149Z,16.71
2023-03-17T11:20:57.313Z,17.01
2023-03-17T11:23:46.911Z,18.68
2023-03-17T11:26:21.572Z,18.29
2023-03-17T11:29:04.627Z,18.60
2023-03-17T11:31:38.185Z,16.32
2023-03-17T11:34:18.150Z,17.32
2023-03-17T11:37:32.720Z,19.46
2023-03-17T11:40:18.763Z,18.97
2023-03-17T11:43:20.620Z,17.19
2023-03-17T11:45:49.456Z,16.01
2023-03-17T11:48:35.532Z,18.56
2023-03-17T11:51:10.590Z,19.17
2023-03-17T11:53:38.753Z,17.78
2023-03-17T11:56:14.112Z,18.96
2023-03-17T11:58:47.256Z,20.60
2023-03-17T12:01:26.645Z,19.83
2023-03-17T12:04:11.599Z,18.61
2023-03-17T12:06:51.049Z,22.02
2023-03-17T12:09:33.734Z,22.12
2023-03-17T12:12:04.639Z,22.21
2023-03-17T12:14:40.440Z,21.77
2023-03-17T12:17:34.806Z,22.37
2023-03-17T12:20:08.238Z,21.74
2023-03-17T12:23:29.780Z,22.29
2023-03-17T12:26:08.858Z,23.14
2023-03-17T12:28:44.847Z,23.59
2023-03-17T12:31:18.720Z,22.72
2023-03-17T12:34:16.617Z,23.12
2023-03-17T12:36:45.137Z,23.29
2023-03-17T12:39:28.635Z,22.35
2023-03-17T12:42:12.148Z,24.24
2023-03-17T12:45:07.665Z,24.67
2023-03-17T12:48:26.839Z,25.78
2023-03-17T12:51:07.049Z,25.60
2023-03-17T12:53:39.094Z,25.82
2023-03-17T12:56:29.405Z,23.98
2023-03-17T12:59:21.906Z,26.97
2023-03-17T13:02:00.718Z,25.77
2023-03-17T13:04:37.564Z,26.47
2023-03-17T13:07:13.178Z,26.37
2023-03-17T13:09:43.317Z,26.37
2023-03-17T13:12:42.885Z,26.63
2023-03-17T13:15:48.455Z,26.02
2023-03-17T13:18:16.786Z,25.38
2023-03-17T13:20:58.200Z,25.15
2023-03-17T13:23:49.483Z,25.23
2023-03-17T13:26:24.625Z,24.90
2023-03-17T13:28:54.725Z,25.68
2023-03-17T13:31:31.407Z,24.30
2023-03-17T13:34:20.378Z,25.32
2023-03-17T13:37:05.954Z,26.56
2023-03-17T13:40:14.893Z,24.56
2023-03-17T13:42:50.312Z,23.84
2023-03-17T13:45:23.118Z,25.05
2023-03-17T13:48:21.024Z,25.70
2023-03-17T13:51:14.514Z,24.87
2023-03-17T13:53:51.545Z,25.82
2023-03-17T13:56:44.508Z,27.11
2023-03-17T14:00:06.785Z,26.58
2023-03-17T14:02:41.902Z,25.70
2023-03-17T14:05:29.275Z,26.44
2023-03-17T14:08:18.477Z,26.99
2023-03-17T14:10:57.888Z,27.42
2023-03-17T14:13:55.138Z,26.38
2023-03-17T14:16:38.796Z,26.49
2023-03-17T14:19:20.933Z,27.18
2023-03-17T14:21:52.146Z,25.90
2023-03-17T14:24:35.234Z,26.68
2023-03-17T14:27:09.307Z,26.27
2023-03-17T14:29:44.845Z,25.79
2023-03-17T14:32:16.544Z,26.16
2023-03-17T14:34:53.361Z,26.22
2023-03-17T14:37:22.518Z,26.03
2023-03-17T14:39:55.758Z,26.05
2023-03-17T14:42:29.448Z,26.96
2023-03-17T14:45:04.159Z,27.40
2023-03-17T14:47:40.662Z,26.95
2023-03-17T14:50:32.478Z,26.33
2023-03-17T14:53:01.248Z,26.78
2023-03-17T14:55:41.116Z,27.24
2023-03-17T14:58:21.249Z,27.82
2023-03-17T15:00:56.515Z,26.39
2023-03-17T15:03:25.755Z,25.94
2023-03-17T15:08:46.358Z,27.81
2023-03-17T15:11:21.113Z,26.47
2023-03-17T15:13:50.240Z,26.51
2023-03-17T15:16:28.422Z,26.72
2023-03-17T15:19:10.772Z,27.05
2023-03-17T15:21:42.347Z,26.65
2023-03-17T15:24:32.805Z,25.75
2023-03-17T15:27:07.375Z,25.82
2023-03-17T15:29:36.781Z,26.03
2023-03-17T15:32:14.571Z,27.61
2023-03-17T15:34:43.100Z,27.54
2023-03-17T15:37:23.992Z,28.28
2023-03-17T15:39:53.396Z,28.78
2023-03-17T15:42:25.301Z,28.13
2023-03-17T15:44:56.932Z,28.40
2023-03-17T15:47:28.522Z,28.15
2023-03-17T15:50:07.760Z,28.09
2023-03-17T15:52:37.801Z,28.68
2023-03-17T15:55:24.028Z,27.57
2023-03-17T15:57:55.954Z,27.35
2023-03-17T16:00:31.136Z,27.74
2023-03-17T16:03:05.004Z,28.36
2023-03-17T16:05:34.432Z,28.26
2023-03-17T16:08:03.085Z,28.86
2023-03-17T16:10:33.477Z,28.33
2023-03-17T16:13:02.549Z,29.16
2023-03-17T16:15:32.840Z,28.61
2023-03-17T16:18:04.495Z,29.80
2023-03-17T16:20:41.971Z,28.78
2023-03-17T16:23:16.092Z,29.65
2023-03-17T16:25:46.238Z,29.71
2023-03-17T16:28:23.574Z,30.18
2023-03-17T16:30:54.706Z,29.34
2023-03-17T16:33:26.865Z,29.82
2023-03-17T16:35:58.515Z,30.72
2023-03-17T16:38:29.965Z,30.54
2023-03-17T16:41:08.205Z,31.10
2023-03-17T16:43:39.918Z,30.71
2023-03-17T16:46:11.332Z,31.06
2023-03-17T16:48:40.286Z,32.57
2023-03-17T16:51:08.910Z,32.13
2023-03-17T16:53:37.128Z,32.10
2023-03-17T16:56:10.428Z,33.82
2023-03-17T16:58:40.001Z,35.20
2023-03-17T17:01:13.861Z,34.67
2023-03-17T17:03:43.218Z,35.78
2023-03-17T17:06:12.911Z,36.62
2023-03-17T17:08:44.996Z,38.00
2023-03-17T17:11:15.045Z,39.17
2023-03-17T17:13:45.444Z,40.14
2023-03-17T17:16:28.332Z,40.52
2023-03-17T17:18:57.518Z,41.98
2023-03-17T17:21:27.039Z,42.56
2023-03-17T17:23:56.086Z,42.92
2023-03-17T17:26:24.268Z,43.17
2023-03-17T17:28:53.039Z,43.97
2023-03-17T17:31:22.967Z,44.89
2023-03-17T17:33:51.254Z,45.97
2023-03-17T17:36:19.760Z,46.97
2023-03-17T17:38:49.651Z,47.12
2023-03-17T17:41:21.734Z,50.36
2023-03-17T17:43:50.766Z,45.45
2023-03-17T17:46:23.272Z,45.73
2023-03-17T17:48:52.683Z,44.99
2023-03-17T17:51:20.948Z,44.58
2023-03-17T17:53:50.914Z,45.72
2023-03-17T17:56:19.677Z,48.18
2023-03-17T17:58:48.146Z,49.00
2023-03-17T18:01:20.090Z,46.81
2023-03-17T18:03:48.991Z,46.85
2023-03-17T18:06:18.224Z,48.73
2023-03-17T18:08:46.811Z,46.44
2023-03-17T18:11:15.848Z,45.66
2023-03-17T18:13:44.932Z,48.13
2023-03-17T18:16:16.698Z,48.94
2023-03-17T18:18:46.632Z,46.06
2023-03-17T18:21:15.373Z,46.48
2023-03-17T18:23:47.474Z,47.95
2023-03-17T18:26:17.578Z,50.88
2023-03-17T18:28:45.768Z,49.99
2023-03-17T18:31:39.218Z,51.58
2023-03-17T18:34:13.227Z,48.55
2023-03-17T18:36:41.925Z,47.13
2023-03-17T18:39:10.856Z,49.86
2023-03-17T18:41:39.154Z,50.51
2023-03-17T18:44:07.900Z,49.83
2023-03-17T18:46:37.499Z,47.69
2023-03-17T18:49:06.604Z,45.47
2023-03-17T18:51:35.248Z,45.42
2023-03-17T18:54:05.105Z,44.14
2023-03-17T18:56:33.330Z,49.13
2023-03-17T18:59:01.628Z,46.42
2023-03-17T19:01:30.895Z,44.82
2023-03-17T19:03:59.319Z,44.95
2023-03-17T19:06:27.559Z,43.95
2023-03-17T19:08:56.573Z,46.09
2023-03-17T19:11:25.768Z,44.36
2023-03-17T19:13:56.189Z,45.13
2023-03-17T19:16:29.333Z,43.47
2023-03-17T19:18:59.555Z,43.22
2023-03-17T19:21:28.890Z,43.37
2023-03-17T19:24:01.152Z,43.11
2023-03-17T19:26:31.478Z,43.43
2023-03-17T19:29:00.837Z,43.96
2023-03-17T19:31:29.322Z,43.57
2023-03-17T19:33:57.608Z,43.36
2023-03-17T19:36:26.274Z,43.23
2023-03-17T19:38:54.879Z,42.31
2023-03-17T19:41:23.267Z,41.72
2023-03-17T19:43:51.778Z,41.83
2023-03-17T19:46:20.261Z,41.28
2023-03-17T19:48:48.450Z,44.22
2023-03-17T19:51:17.096Z,42.57
2023-03-17T19:53:45.596Z,44.60
2023-03-17T19:56:13.693Z,42.85
2023-03-17T19:58:42.236Z,42.97
2023-03-17T20:01:10.417Z,43.73
2023-03-17T20:03:42.667Z,42.72
2023-03-17T20:06:12.639Z,42.91
2023-03-17T20:08:43.013Z,43.65
2023-03-17T20:11:12.297Z,43.26
2023-03-17T20:13:41.247Z,43.15
2023-03-17T20:16:09.680Z,43.03
2023-03-17T20:18:38.317Z,42.20
2023-03-17T20:21:14.464Z,42.75
2023-03-17T20:23:42.758Z,42.39
2023-03-17T20:26:11.301Z,43.61
2023-03-17T20:28:39.386Z,44.38
2023-03-17T20:31:10.204Z,43.37
2023-03-17T20:33:38.780Z,42.59
2023-03-17T20:36:07.262Z,43.01
2023-03-17T20:38:39.225Z,45.07
2023-03-17T20:41:18.661Z,43.74
2023-03-17T20:43:47.612Z,42.65
2023-03-17T20:46:24.124Z,42.55
2023-03-17T20:48:58.915Z,43.38
2023-03-17T20:51:27.874Z,43.57
2023-03-17T20:53:57.077Z,42.98
2023-03-17T20:56:26.861Z,43.47
2023-03-17T20:58:56.542Z,43.36
2023-03-17T21:01:24.876Z,43.01
2023-03-17T21:03:53.820Z,42.43
2023-03-17T21:06:25.854Z,41.84
2023-03-17T21:08:54.694Z,41.62
2023-03-17T21:11:23.439Z,42.85
2023-03-17T21:13:52.111Z,41.88
2023-03-17T21:16:24.158Z,41.26
2023-03-17T21:18:52.981Z,41.17
2023-03-17T21:21:22.309Z,42.69
2023-03-17T21:23:50.471Z,42.14
2023-03-17T21:26:19.734Z,42.22
2023-03-17T21:28:49.014Z,42.75
2023-03-17T21:31:17.541Z,42.40
2023-03-17T21:33:50.821Z,41.77
2023-03-17T21:36:21.127Z,41.24
2023-03-17T21:38:49.901Z,42.14
2023-03-17T21:41:22.610Z,42.80
2023-03-17T21:43:51.380Z,42.32
2023-03-17T21:46:19.473Z,42.24
2023-03-17T21:48:47.680Z,42.59
2023-03-17T21:51:16.166Z,41.52
2023-03-17T21:53:44.934Z,40.92
2023-03-17T21:56:13.815Z,41.15
2023-03-17T21:58:43.254Z,41.79
2023-03-17T22:01:12.005Z,41.98
2023-03-17T22:03:42.518Z,41.83
2023-03-17T22:06:11.952Z,42.06
2023-03-17T22:08:40.798Z,41.22
2023-03-17T22:11:19.131Z,42.33
2023-03-17T22:13:48.318Z,42.38
2023-03-17T22:16:17.256Z,43.48
2023-03-17T22:18:45.747Z,42.62
2023-03-17T22:21:14.946Z,44.49
2023-03-17T22:23:43.097Z,43.41
2023-03-17T22:26:16.834Z,43.22
2023-03-17T22:28:46.600Z,42.56
2023-03-17T22:31:20.961Z,42.83
2023-03-17T22:33:51.420Z,43.56
2023-03-17T22:36:19.593Z,43.73
2023-03-17T22:38:47.862Z,43.08
2023-03-17T22:41:21.935Z,43.70
2023-03-17T22:43:50.446Z,43.14
2023-03-17T22:46:19.589Z,43.80
2023-03-17T22:48:48.215Z,42.86
2023-03-17T22:51:19.421Z,42.35
2023-03-17T22:53:47.998Z,43.08
2023-03-17T22:56:16.958Z,42.70
2023-03-17T22:58:46.003Z,42.13
2023-03-17T23:01:16.779Z,42.55
2023-03-17T23:03:45.875Z,42.67
2023-03-17T23:06:14.881Z,43.23
2023-03-17T23:08:43.907Z,45.96
2023-03-17T23:11:18.684Z,45.32
2023-03-17T23:13:48.191Z,46.44
2023-03-17T23:16:17.508Z,47.00
2023-03-17T23:18:46.977Z,49.10
2023-03-17T23:21:30.468Z,49.49
2023-03-17T23:23:59.367Z,51.86
2023-03-17T23:26:28.747Z,50.81
2023-03-17T23:28:56.844Z,52.99
2023-03-17T23:31:24.984Z,52.10
2023-03-17T23:33:53.925Z,53.83
2023-03-17T23:36:22.119Z,55.18
2023-03-17T23:38:52.448Z,53.57
2023-03-17T23:41:21.107Z,51.98
2023-03-17T23:43:49.343Z,51.17
2023-03-17T23:46:18.095Z,51.23
2023-03-17T23:48:46.898Z,51.54
2023-03-17T23:51:15.614Z,54.36
2023-03-17T23:53:43.947Z,50.92
2023-03-17T23:56:13.254Z,54.37
2023-03-17T23:58:43.701Z,54.65
